CheckWX is a tool to help pilots better visualize weather data.  It is not intended as a substitute for an official pre-flight weather briefing.

13:09:09 UTC

NWWR TAF
Maré Airport
Maré, New Caledonia
TAF NWWR 241100Z 2412/2512 VRB02KT 9999 SCT023 TEMPO 2412/2424 4000 SHRA BKN013 FEW025CB BECMG 2422/2424 12008KT

May-24@
12:00 UTC

May-24 @ 12:00 UTC

May-24@
22:00 UTC

May-24 @ 22:00 UTC

TAF NWWR 241100Z 2412/2512 VRB02KT 9999 SCT023
Wind
  • Variable at 2 KTS
Cloud Levels
  • Scattered at 2,300' AGL

May-24@
12:00 UTC

May-24 @ 12:00 UTC

May-25@
00:00 UTC

May-25 @ 00:00 UTC

TEMPO 2412/2424 4000 SHRA BKN013 FEW025CB

Temporary

Temporary Changes expected for less than half the time period

Conditions
Rain
Cloud Levels
  • Broken at 1,300' AGL
  • Few at 2,500' AGL

May-24@
22:00 UTC

May-24 @ 22:00 UTC

May-25@
12:00 UTC

May-25 @ 12:00 UTC

BECMG 2422/2424 12008KT

Becoming

Becoming Conditions expected by Sat, May 25, 2019 @ 00:00 UTC

Wind
  • 120° at 8 KTS
Cloud Levels
  • Scattered at 2,300' AGL